createdAt,value
2023-02-07T00:01:25.525Z,68.23
2023-02-07T00:03:53.134Z,69.74
2023-02-07T00:06:27.354Z,69.73
2023-02-07T00:08:55.037Z,68.18
2023-02-07T00:11:23.610Z,67.24
2023-02-07T00:13:59.148Z,66.49
2023-02-07T00:16:27.193Z,65.96
2023-02-07T00:18:55.093Z,65.74
2023-02-07T00:21:23.958Z,64.66
2023-02-07T00:23:51.702Z,64.31
2023-02-07T00:26:20.228Z,65.62
2023-02-07T00:28:48.064Z,66.26
2023-02-07T00:31:29.939Z,67.77
2023-02-07T00:34:00.865Z,68.65
2023-02-07T00:36:30.012Z,68.61
2023-02-07T00:39:02.255Z,68.72
2023-02-07T00:41:29.773Z,68.84
2023-02-07T00:43:57.331Z,68.71
2023-02-07T00:46:26.879Z,68.87
2023-02-07T00:48:54.268Z,68.63
2023-02-07T00:51:21.596Z,68.58
2023-02-07T00:53:48.648Z,69.09
2023-02-07T00:56:18.384Z,68.61
2023-02-07T00:58:45.661Z,68.32
2023-02-07T01:01:15.599Z,67.76
2023-02-07T01:03:42.954Z,68.30
2023-02-07T01:06:10.426Z,67.15
2023-02-07T01:08:38.394Z,67.41
2023-02-07T01:11:08.760Z,68.38
2023-02-07T01:13:35.980Z,68.14
2023-02-07T01:16:03.729Z,68.00
2023-02-07T01:18:30.721Z,67.91
2023-02-07T01:20:57.827Z,67.67
2023-02-07T01:23:24.928Z,67.79
2023-02-07T01:25:51.930Z,67.47
2023-02-07T01:28:18.845Z,67.53
2023-02-07T01:30:46.136Z,66.61
2023-02-07T01:33:13.205Z,67.19
2023-02-07T01:35:40.409Z,66.59
2023-02-07T01:38:07.634Z,66.83
2023-02-07T01:40:37.926Z,66.05
2023-02-07T01:43:04.949Z,66.90
2023-02-07T01:45:40.470Z,66.29
2023-02-07T01:48:30.049Z,66.93
2023-02-07T01:51:00.773Z,65.97
2023-02-07T01:53:30.256Z,66.51
2023-02-07T01:56:00.518Z,66.21
2023-02-07T01:58:28.184Z,65.65
2023-02-07T02:00:55.709Z,66.33
2023-02-07T02:03:22.686Z,67.29
2023-02-07T02:05:52.153Z,66.10
2023-02-07T02:08:19.088Z,65.67
2023-02-07T02:10:51.739Z,66.21
2023-02-07T02:13:27.458Z,65.47
2023-02-07T02:16:31.552Z,64.88
2023-02-07T02:19:36.911Z,64.70
2023-02-07T02:22:43.653Z,65.18
2023-02-07T02:25:19.344Z,64.85
2023-02-07T02:28:18.037Z,64.93
2023-02-07T02:31:21.830Z,66.01
2023-02-07T02:33:54.893Z,66.80
2023-02-07T02:36:46.143Z,66.94
2023-02-07T02:39:25.515Z,67.12
2023-02-07T02:42:06.514Z,67.94
2023-02-07T02:44:48.522Z,68.50
2023-02-07T02:47:17.505Z,68.34
2023-02-07T02:49:45.224Z,68.82
2023-02-07T02:52:12.286Z,68.31
2023-02-07T02:54:40.556Z,68.68
2023-02-07T02:57:38.146Z,68.63
2023-02-07T03:00:14.314Z,68.60
2023-02-07T03:03:13.918Z,69.24
2023-02-07T03:06:05.094Z,69.12
2023-02-07T03:09:09.647Z,70.62
2023-02-07T03:11:50.006Z,70.50
2023-02-07T03:14:45.990Z,70.51
2023-02-07T03:17:29.169Z,70.12
2023-02-07T03:20:10.600Z,70.50
2023-02-07T03:22:38.714Z,69.87
2023-02-07T03:25:07.983Z,70.35
2023-02-07T03:27:37.124Z,70.45
2023-02-07T03:30:09.255Z,70.04
2023-02-07T03:32:46.765Z,70.73
2023-02-07T03:35:24.909Z,70.08
2023-02-07T03:37:55.923Z,70.15
2023-02-07T03:40:26.576Z,70.37
2023-02-07T03:43:08.345Z,70.16
2023-02-07T03:45:36.005Z,70.55
2023-02-07T03:48:03.132Z,70.12
2023-02-07T03:50:30.166Z,70.17
2023-02-07T03:52:57.006Z,70.12
2023-02-07T03:55:24.006Z,69.49
2023-02-07T03:57:51.213Z,69.81
2023-02-07T04:00:18.346Z,69.37
2023-02-07T04:02:48.016Z,69.22
2023-02-07T04:05:18.002Z,69.43
2023-02-07T04:07:45.071Z,68.23
2023-02-07T04:10:12.792Z,67.70
2023-02-07T04:12:39.898Z,67.53
2023-02-07T04:15:07.705Z,67.11
2023-02-07T04:17:34.855Z,67.72
2023-02-07T04:20:02.221Z,68.00
2023-02-07T04:22:29.485Z,67.32
2023-02-07T04:24:57.357Z,67.58
2023-02-07T04:27:24.733Z,67.80
2023-02-07T04:29:51.671Z,68.19
2023-02-07T04:32:21.120Z,69.60
2023-02-07T04:34:48.082Z,70.59
2023-02-07T04:37:15.541Z,70.70
2023-02-07T04:39:42.421Z,69.94
2023-02-07T04:42:09.348Z,70.29
2023-02-07T04:44:36.460Z,70.45
2023-02-07T04:47:03.464Z,70.21
2023-02-07T04:49:33.814Z,69.59
2023-02-07T04:52:05.186Z,69.87
2023-02-07T04:54:32.223Z,69.57
2023-02-07T04:56:59.141Z,68.83
2023-02-07T04:59:26.275Z,68.81
2023-02-07T05:01:56.374Z,69.27
2023-02-07T05:04:23.346Z,69.30
2023-02-07T05:06:50.620Z,68.89
2023-02-07T05:09:17.747Z,70.11
2023-02-07T05:11:44.878Z,68.35
2023-02-07T05:14:11.886Z,69.49
2023-02-07T05:16:52.882Z,68.92
2023-02-07T05:19:20.125Z,70.06
2023-02-07T05:21:49.953Z,68.61
2023-02-07T05:24:16.932Z,68.60
2023-02-07T05:26:43.985Z,68.76
2023-02-07T05:29:11.103Z,69.17
2023-02-07T05:31:38.111Z,68.66
2023-02-07T05:34:05.053Z,68.48
2023-02-07T05:36:32.048Z,68.35
2023-02-07T05:38:58.958Z,67.75
2023-02-07T05:41:26.468Z,65.70
2023-02-07T05:43:53.768Z,66.49
2023-02-07T05:46:20.803Z,67.55
2023-02-07T05:48:47.678Z,68.59
2023-02-07T05:51:14.991Z,69.30
2023-02-07T05:53:42.142Z,69.22
2023-02-07T05:56:09.358Z,69.15
2023-02-07T05:58:36.509Z,68.42
2023-02-07T06:01:06.128Z,67.89
2023-02-07T06:03:33.009Z,66.76
2023-02-07T06:06:00.125Z,68.51
2023-02-07T06:08:26.950Z,68.15
2023-02-07T06:10:53.933Z,69.74
2023-02-07T06:13:21.015Z,70.74
2023-02-07T06:15:48.498Z,71.01
2023-02-07T06:18:15.350Z,71.06
2023-02-07T06:20:42.363Z,69.16
2023-02-07T06:23:09.394Z,68.61
2023-02-07T06:25:36.681Z,67.65
2023-02-07T06:28:04.238Z,67.79
2023-02-07T06:30:31.830Z,67.30
2023-02-07T06:32:58.815Z,67.68
2023-02-07T06:35:26.557Z,68.37
2023-02-07T06:37:55.083Z,69.85
2023-02-07T06:40:25.129Z,68.74
2023-02-07T06:42:52.300Z,68.68
2023-02-07T06:45:19.250Z,68.30
2023-02-07T06:47:46.716Z,68.88
2023-02-07T06:50:14.028Z,68.17
2023-02-07T06:52:40.905Z,68.64
2023-02-07T06:55:12.124Z,68.57
2023-02-07T06:57:39.434Z,67.97
2023-02-07T07:00:06.771Z,68.44
2023-02-07T07:02:33.646Z,68.51
2023-02-07T07:05:00.766Z,65.40
2023-02-07T07:07:27.629Z,63.62
2023-02-07T07:09:54.542Z,63.21
2023-02-07T07:12:22.350Z,64.16
2023-02-07T07:14:49.244Z,66.00
2023-02-07T07:17:16.108Z,66.51
2023-02-07T07:19:43.683Z,66.92
2023-02-07T07:22:10.700Z,67.34
2023-02-07T07:24:37.590Z,67.22
2023-02-07T07:27:04.781Z,68.56
2023-02-07T07:29:31.563Z,68.54
2023-02-07T07:31:58.667Z,68.52
2023-02-07T07:34:25.826Z,68.52
2023-02-07T07:36:55.095Z,65.83
2023-02-07T07:39:21.981Z,66.35
2023-02-07T07:41:48.973Z,67.96
2023-02-07T07:44:16.170Z,66.57
2023-02-07T07:46:43.399Z,66.30
2023-02-07T07:49:10.723Z,67.34
2023-02-07T07:51:38.272Z,67.47
2023-02-07T07:54:05.179Z,68.22
2023-02-07T07:56:32.592Z,68.01
2023-02-07T07:59:01.566Z,65.99
2023-02-07T08:01:30.396Z,64.48
2023-02-07T08:04:01.061Z,64.66
2023-02-07T08:06:28.478Z,59.67
2023-02-07T08:08:55.451Z,60.36
2023-02-07T08:11:23.913Z,59.96
2023-02-07T08:13:52.875Z,60.80
2023-02-07T08:16:19.834Z,58.91
2023-02-07T08:18:47.106Z,57.73
2023-02-07T08:21:14.385Z,60.82
2023-02-07T08:23:41.371Z,59.76
2023-02-07T08:26:09.132Z,57.73
2023-02-07T08:28:36.294Z,50.98
2023-02-07T08:31:05.829Z,50.44
2023-02-07T08:33:33.156Z,52.80
2023-02-07T08:36:00.028Z,54.33
2023-02-07T08:38:27.121Z,52.46
2023-02-07T08:40:54.125Z,55.38
2023-02-07T08:43:20.933Z,56.32
2023-02-07T08:45:49.186Z,57.83
2023-02-07T08:48:16.313Z,58.61
2023-02-07T08:50:43.306Z,58.14
2023-02-07T08:53:10.575Z,60.27
2023-02-07T08:55:40.209Z,57.43
2023-02-07T08:58:09.666Z,57.81
2023-02-07T09:00:36.704Z,58.32
2023-02-07T09:03:05.022Z,56.88
2023-02-07T09:05:32.440Z,57.18
2023-02-07T09:08:00.754Z,58.89
2023-02-07T09:10:27.994Z,59.73
2023-02-07T09:12:54.854Z,59.77
2023-02-07T09:15:21.668Z,59.50
2023-02-07T09:17:48.863Z,58.21
2023-02-07T09:20:15.899Z,62.58
2023-02-07T09:22:42.926Z,62.60
2023-02-07T09:25:10.148Z,63.70
2023-02-07T09:27:37.385Z,64.70
2023-02-07T09:30:04.767Z,64.48
2023-02-07T09:32:31.899Z,63.90
2023-02-07T09:34:59.047Z,61.84
2023-02-07T09:37:25.961Z,61.32
2023-02-07T09:39:52.877Z,60.99
2023-02-07T09:42:25.903Z,60.36
2023-02-07T09:45:12.476Z,60.71
2023-02-07T09:47:43.051Z,59.78
2023-02-07T09:50:21.498Z,59.00
2023-02-07T09:52:51.307Z,58.39
2023-02-07T09:55:25.520Z,57.65
2023-02-07T09:58:14.523Z,56.89
2023-02-07T10:00:43.671Z,54.64
2023-02-07T10:03:15.444Z,56.06
2023-02-07T10:06:18.862Z,53.58
2023-02-07T10:08:52.719Z,55.27
2023-02-07T10:11:25.679Z,54.22
2023-02-07T10:14:13.477Z,55.15
2023-02-07T10:16:55.011Z,56.42
2023-02-07T10:19:43.904Z,55.81
2023-02-07T10:22:36.241Z,52.84
2023-02-07T10:25:15.405Z,53.88
2023-02-07T10:28:10.154Z,51.92
2023-02-07T10:30:41.531Z,53.61
2023-02-07T10:33:16.007Z,54.40
2023-02-07T10:35:45.614Z,52.47
2023-02-07T10:38:23.366Z,51.45
2023-02-07T10:41:17.351Z,50.17
2023-02-07T10:43:47.362Z,53.00
2023-02-07T10:46:18.236Z,53.61
2023-02-07T10:48:46.392Z,50.98
2023-02-07T10:51:37.783Z,52.21
2023-02-07T10:54:11.145Z,53.12
2023-02-07T10:56:46.764Z,49.54
2023-02-07T10:59:36.117Z,46.94
2023-02-07T11:02:29.211Z,45.58
2023-02-07T11:04:57.840Z,45.88
2023-02-07T11:07:25.490Z,46.35
2023-02-07T11:09:52.580Z,46.16
2023-02-07T11:12:24.916Z,46.14
2023-02-07T11:15:08.316Z,49.18
2023-02-07T11:17:35.429Z,47.53
2023-02-07T11:20:05.203Z,47.64
2023-02-07T11:22:32.470Z,48.49
2023-02-07T11:25:08.499Z,48.26
2023-02-07T11:27:41.310Z,48.97
2023-02-07T11:30:20.516Z,49.92
2023-02-07T11:32:58.226Z,48.86
2023-02-07T11:35:25.923Z,47.26
2023-02-07T11:38:13.340Z,46.35
2023-02-07T11:40:43.228Z,49.41
2023-02-07T11:43:10.086Z,48.86
2023-02-07T11:45:41.018Z,49.82
2023-02-07T11:48:17.098Z,50.84
2023-02-07T11:50:52.762Z,48.00
2023-02-07T11:53:26.838Z,50.43
2023-02-07T11:55:56.158Z,50.97
2023-02-07T11:58:36.499Z,51.72
2023-02-07T12:01:06.341Z,53.22
2023-02-07T12:03:50.664Z,51.56
2023-02-07T12:06:22.420Z,52.26
2023-02-07T12:08:50.994Z,53.06
2023-02-07T12:11:33.408Z,52.50
2023-02-07T12:14:15.201Z,52.24
2023-02-07T12:16:50.042Z,52.96
2023-02-07T12:19:43.595Z,51.76
2023-02-07T12:22:22.204Z,52.52
2023-02-07T12:25:21.262Z,53.08
2023-02-07T12:27:52.103Z,52.69
2023-02-07T12:30:41.954Z,52.20
2023-02-07T12:33:46.136Z,50.20
2023-02-07T12:36:21.186Z,50.35
2023-02-07T12:38:55.394Z,50.50
2023-02-07T12:41:34.317Z,49.16
2023-02-07T12:44:06.127Z,50.00
2023-02-07T12:47:03.445Z,51.52
2023-02-07T12:49:40.014Z,51.35
2023-02-07T12:52:07.284Z,51.43
2023-02-07T12:54:36.790Z,51.27
2023-02-07T12:57:19.290Z,50.03
2023-02-07T13:00:16.264Z,50.58
2023-02-07T13:03:11.259Z,49.96
2023-02-07T13:05:58.262Z,50.92
2023-02-07T13:08:32.795Z,50.84
2023-02-07T13:11:18.038Z,51.86
2023-02-07T13:13:55.974Z,51.50
2023-02-07T13:16:39.515Z,51.24
2023-02-07T13:19:25.426Z,51.55
2023-02-07T13:22:20.107Z,50.88
2023-02-07T13:24:48.863Z,48.46
2023-02-07T13:27:20.984Z,48.64
2023-02-07T13:29:50.337Z,49.35
2023-02-07T13:32:30.496Z,47.95
2023-02-07T13:35:07.545Z,50.84
2023-02-07T13:38:05.240Z,50.31
2023-02-07T13:40:56.182Z,50.59
2023-02-07T13:43:40.218Z,50.24
2023-02-07T13:46:43.615Z,51.02
2023-02-07T13:49:23.865Z,50.79
2023-02-07T13:51:53.756Z,50.72
2023-02-07T13:54:29.445Z,51.65
2023-02-07T13:56:58.717Z,51.43
2023-02-07T13:59:37.039Z,51.15
2023-02-07T14:02:07.608Z,50.97
2023-02-07T14:04:55.176Z,50.96
2023-02-07T14:07:32.222Z,49.80
2023-02-07T14:09:59.291Z,49.11
2023-02-07T14:12:31.684Z,50.28
2023-02-07T14:15:18.963Z,50.74
2023-02-07T14:18:36.894Z,50.05
2023-02-07T14:21:20.493Z,51.10
2023-02-07T14:24:03.029Z,52.67
2023-02-07T14:26:39.310Z,52.45
2023-02-07T14:29:21.346Z,50.99
2023-02-07T14:32:11.916Z,52.44
2023-02-07T14:35:04.360Z,52.94
2023-02-07T14:37:46.548Z,52.55
2023-02-07T14:40:19.422Z,53.08
2023-02-07T14:43:05.425Z,54.71
2023-02-07T14:45:36.304Z,54.68
2023-02-07T14:48:05.858Z,54.27
2023-02-07T14:50:33.623Z,54.36
2023-02-07T14:53:03.848Z,53.52
2023-02-07T14:55:40.865Z,53.56
2023-02-07T14:58:24.121Z,55.68
2023-02-07T15:00:57.062Z,56.49
2023-02-07T15:03:24.070Z,56.32
2023-02-07T15:05:59.917Z,56.95
2023-02-07T15:08:29.854Z,57.38
2023-02-07T15:11:01.315Z,56.83
2023-02-07T15:13:32.827Z,56.83
2023-02-07T15:16:01.804Z,56.50
2023-02-07T15:18:32.799Z,56.95
2023-02-07T15:21:00.657Z,58.71
2023-02-07T15:23:30.333Z,59.37
2023-02-07T15:26:06.316Z,60.10
2023-02-07T15:28:33.482Z,59.33
2023-02-07T15:31:13.602Z,58.72
2023-02-07T15:34:01.905Z,58.48
2023-02-07T15:36:38.357Z,57.88
2023-02-07T15:39:16.568Z,58.10
2023-02-07T15:41:47.516Z,58.50
2023-02-07T15:44:26.514Z,58.99
2023-02-07T15:47:04.781Z,57.91
2023-02-07T15:49:41.301Z,58.58
2023-02-07T15:52:14.393Z,59.52
2023-02-07T15:54:49.930Z,59.50
2023-02-07T15:57:40.826Z,59.60
2023-02-07T16:00:15.869Z,60.15
2023-02-07T16:02:44.883Z,60.25
2023-02-07T16:05:27.604Z,59.74
2023-02-07T16:07:54.997Z,59.76
2023-02-07T16:10:24.606Z,59.58
2023-02-07T16:12:53.459Z,60.15
2023-02-07T16:15:30.424Z,60.23
2023-02-07T16:17:57.439Z,59.39
2023-02-07T16:20:26.513Z,59.72
2023-02-07T16:22:58.122Z,59.74
2023-02-07T16:25:30.887Z,60.71
2023-02-07T16:27:58.273Z,61.46
2023-02-07T16:30:36.160Z,61.10
2023-02-07T16:33:07.157Z,60.32
2023-02-07T16:35:36.512Z,61.40
2023-02-07T16:38:03.434Z,61.39
2023-02-07T16:40:30.727Z,62.26
2023-02-07T16:42:58.104Z,62.79
2023-02-07T16:45:30.185Z,62.10
2023-02-07T16:47:59.524Z,62.24
2023-02-07T16:50:28.933Z,62.37
2023-02-07T16:52:57.507Z,63.33
2023-02-07T16:55:26.986Z,63.70
2023-02-07T16:57:55.053Z,63.75
2023-02-07T17:00:25.329Z,64.35
2023-02-07T17:02:53.302Z,64.76
2023-02-07T17:05:22.342Z,64.68
2023-02-07T17:07:50.126Z,63.99
2023-02-07T17:10:28.026Z,65.24
2023-02-07T17:12:57.362Z,65.19
2023-02-07T17:15:24.656Z,65.71
2023-02-07T17:17:52.271Z,65.79
2023-02-07T17:20:28.203Z,65.48
2023-02-07T17:22:55.554Z,66.04
2023-02-07T17:25:25.320Z,67.60
2023-02-07T17:27:52.526Z,66.97
2023-02-07T17:30:25.522Z,67.68
2023-02-07T17:32:53.585Z,67.66
2023-02-07T17:35:21.880Z,67.14
2023-02-07T17:37:49.560Z,67.84
2023-02-07T17:40:22.974Z,68.20
2023-02-07T17:42:50.473Z,68.84
2023-02-07T17:45:19.486Z,69.11
2023-02-07T17:47:46.642Z,68.65
2023-02-07T17:50:23.994Z,67.88
2023-02-07T17:52:51.313Z,70.58
2023-02-07T17:55:18.514Z,71.03
2023-02-07T17:57:45.797Z,71.83
2023-02-07T18:00:21.872Z,70.87
2023-02-07T18:02:50.031Z,70.95
2023-02-07T18:05:18.493Z,70.91
2023-02-07T18:07:50.093Z,70.68
2023-02-07T18:10:22.083Z,70.93
2023-02-07T18:12:49.220Z,71.30
2023-02-07T18:15:17.002Z,71.15
2023-02-07T18:17:44.154Z,70.58
2023-02-07T18:20:13.253Z,70.41
2023-02-07T18:22:40.358Z,70.22
2023-02-07T18:25:07.715Z,70.16
2023-02-07T18:27:35.803Z,70.12
2023-02-07T18:30:03.988Z,69.11
2023-02-07T18:32:31.146Z,68.63
2023-02-07T18:34:58.113Z,67.61
2023-02-07T18:37:25.308Z,68.01
2023-02-07T18:39:53.028Z,67.49
2023-02-07T18:42:19.933Z,67.49
2023-02-07T18:44:47.104Z,67.15
2023-02-07T18:47:14.123Z,66.93
2023-02-07T18:49:41.339Z,66.11
2023-02-07T18:52:08.447Z,66.69
2023-02-07T18:54:42.572Z,67.01
2023-02-07T18:57:09.357Z,66.51
2023-02-07T18:59:37.617Z,67.41
2023-02-07T19:02:05.888Z,66.95
2023-02-07T19:04:33.399Z,67.08
2023-02-07T19:07:00.593Z,67.11
2023-02-07T19:09:36.598Z,67.38
2023-02-07T19:12:03.579Z,68.45
2023-02-07T19:14:31.607Z,68.63
2023-02-07T19:17:00.780Z,68.32
2023-02-07T19:19:30.471Z,67.15
2023-02-07T19:21:58.117Z,66.94
2023-02-07T19:24:26.309Z,68.36
2023-02-07T19:26:56.125Z,67.43
2023-02-07T19:29:25.704Z,67.54
2023-02-07T19:31:53.230Z,67.19
2023-02-07T19:34:20.352Z,67.13
2023-02-07T19:36:49.652Z,67.61
2023-02-07T19:39:17.173Z,66.95
2023-02-07T19:41:44.626Z,66.81
2023-02-07T19:44:12.253Z,66.42
2023-02-07T19:46:39.503Z,66.83
2023-02-07T19:49:06.832Z,66.53
2023-02-07T19:51:33.741Z,65.96
2023-02-07T19:54:01.325Z,66.30
2023-02-07T19:56:31.094Z,65.93
2023-02-07T19:58:58.017Z,66.25
2023-02-07T20:01:25.923Z,66.72
2023-02-07T20:03:53.738Z,66.40
2023-02-07T20:06:23.766Z,66.05
2023-02-07T20:08:50.831Z,65.94
2023-02-07T20:11:19.712Z,66.28
2023-02-07T20:13:49.174Z,65.79
2023-02-07T20:16:22.426Z,65.24
2023-02-07T20:18:50.161Z,64.71
2023-02-07T20:21:19.957Z,64.04
2023-02-07T20:23:49.196Z,64.30
2023-02-07T20:26:20.256Z,63.79
2023-02-07T20:28:47.995Z,63.80
2023-02-07T20:31:18.296Z,63.52
2023-02-07T20:33:45.860Z,63.96
2023-02-07T20:36:15.723Z,63.73
2023-02-07T20:38:44.968Z,62.83
2023-02-07T20:41:18.177Z,63.15
2023-02-07T20:43:45.210Z,62.71
2023-02-07T20:46:14.943Z,62.96
2023-02-07T20:48:41.978Z,62.77
2023-02-07T20:51:10.499Z,63.30
2023-02-07T20:53:43.487Z,62.78
2023-02-07T20:56:15.578Z,63.11
2023-02-07T20:58:42.808Z,62.69
2023-02-07T21:01:16.395Z,63.12
2023-02-07T21:03:46.654Z,63.10
2023-02-07T21:06:13.742Z,62.71
2023-02-07T21:08:41.095Z,63.29
2023-02-07T21:11:09.884Z,62.78
2023-02-07T21:13:37.680Z,62.68
2023-02-07T21:16:06.960Z,62.93
2023-02-07T21:18:35.254Z,63.52
2023-02-07T21:21:07.585Z,63.58
2023-02-07T21:23:35.769Z,63.64
2023-02-07T21:26:04.712Z,63.28
2023-02-07T21:28:32.160Z,63.48
2023-02-07T21:31:09.916Z,62.76
2023-02-07T21:33:37.345Z,62.93
2023-02-07T21:36:08.243Z,62.65
2023-02-07T21:38:36.084Z,62.70
2023-02-07T21:41:05.314Z,63.60
2023-02-07T21:43:32.389Z,63.52
2023-02-07T21:46:04.235Z,63.52
2023-02-07T21:48:31.678Z,63.71
2023-02-07T21:51:10.358Z,64.10
2023-02-07T21:53:38.375Z,64.17
2023-02-07T21:56:11.955Z,64.46
2023-02-07T21:58:39.687Z,64.75
2023-02-07T22:01:09.876Z,65.54
2023-02-07T22:03:38.437Z,65.09
2023-02-07T22:06:07.720Z,65.04
2023-02-07T22:08:36.068Z,65.34
2023-02-07T22:11:05.421Z,65.20
2023-02-07T22:13:33.885Z,64.61
2023-02-07T22:16:00.788Z,64.67
2023-02-07T22:18:28.543Z,65.02
2023-02-07T22:20:55.630Z,65.16
2023-02-07T22:23:22.611Z,65.32
2023-02-07T22:25:52.463Z,65.31
2023-02-07T22:28:19.566Z,64.91
2023-02-07T22:30:46.948Z,65.09
2023-02-07T22:33:14.287Z,65.19
2023-02-07T22:35:42.942Z,64.50
2023-02-07T22:38:12.817Z,64.61
2023-02-07T22:40:42.425Z,64.77
2023-02-07T22:43:15.845Z,65.08
2023-02-07T22:45:43.076Z,65.18
2023-02-07T22:48:10.143Z,65.44
2023-02-07T22:50:38.785Z,64.64
2023-02-07T22:53:05.861Z,65.12
2023-02-07T22:55:33.706Z,65.07
2023-02-07T22:58:01.408Z,65.45
2023-02-07T23:00:28.804Z,65.18
2023-02-07T23:02:56.186Z,65.32
2023-02-07T23:05:23.721Z,65.86
2023-02-07T23:07:50.598Z,65.96
2023-02-07T23:10:17.521Z,65.43
2023-02-07T23:12:45.492Z,65.54
2023-02-07T23:15:13.248Z,65.83
2023-02-07T23:17:40.273Z,65.70
2023-02-07T23:20:07.492Z,65.87
2023-02-07T23:22:39.442Z,66.48
2023-02-07T23:25:07.379Z,66.01
2023-02-07T23:27:34.658Z,67.44
2023-02-07T23:30:01.605Z,66.90
2023-02-07T23:32:28.758Z,67.19
2023-02-07T23:34:55.681Z,66.78
2023-02-07T23:37:22.634Z,66.69
2023-02-07T23:39:49.742Z,66.76
2023-02-07T23:42:17.006Z,66.74
2023-02-07T23:44:43.873Z,66.54
2023-02-07T23:47:10.887Z,66.52
2023-02-07T23:49:37.738Z,66.70
2023-02-07T23:52:04.827Z,66.01
2023-02-07T23:54:32.371Z,66.54
2023-02-07T23:56:59.512Z,66.81
2023-02-07T23:59:26.604Z,66.94
